createdAt,value
2018-10-16T00:01:49.565Z,101287.17
2018-10-16T00:06:53.825Z,101296.66
2018-10-16T00:12:01.739Z,101294.75
2018-10-16T00:17:05.021Z,101291.34
2018-10-16T00:22:08.225Z,101293.23
2018-10-16T00:27:11.413Z,101298.81
2018-10-16T00:32:14.822Z,101302.28
2018-10-16T00:37:18.185Z,101303.78
2018-10-16T00:42:21.591Z,101300.58
2018-10-16T00:47:25.124Z,101307.73
2018-10-16T00:52:28.358Z,101307.22
2018-10-16T00:57:31.697Z,101305.21
2018-10-16T01:02:34.838Z,101303.98
2018-10-16T01:07:38.020Z,101301.48
2018-10-16T01:12:41.166Z,101299.78
2018-10-16T01:17:44.645Z,101290.86
2018-10-16T01:22:48.509Z,101292.08
2018-10-16T01:27:51.946Z,101297.50
2018-10-16T01:32:55.289Z,101305.34
2018-10-16T01:37:58.530Z,101308.97
2018-10-16T01:43:01.775Z,101298.43
2018-10-16T01:48:04.982Z,101309.30
2018-10-16T01:53:08.136Z,101297.36
2018-10-16T01:58:11.566Z,101288.66
2018-10-16T02:03:14.857Z,101288.32
2018-10-16T02:08:18.668Z,101293.68
2018-10-16T02:13:22.110Z,101300.70
2018-10-16T02:18:25.343Z,101293.11
2018-10-16T02:23:28.627Z,101296.39
2018-10-16T02:28:31.826Z,101292.84
2018-10-16T02:33:35.214Z,101302.88
2018-10-16T02:38:38.382Z,101310.14
2018-10-16T02:43:42.065Z,101316.78
2018-10-16T02:48:45.270Z,101315.81
2018-10-16T02:53:48.492Z,101328.63
2018-10-16T02:58:51.721Z,101324.41
2018-10-16T03:03:54.923Z,101315.96
2018-10-16T03:08:58.189Z,101306.56
2018-10-16T03:14:01.386Z,101308.47
2018-10-16T03:19:04.664Z,101318.59
2018-10-16T03:24:08.090Z,101310.66
2018-10-16T03:29:11.269Z,101319.09
2018-10-16T03:34:14.510Z,101323.78
2018-10-16T03:39:17.820Z,101317.39
2018-10-16T03:44:21.047Z,101328.75
2018-10-16T03:49:24.286Z,101341.55
2018-10-16T03:54:27.533Z,101330.20
2018-10-16T03:59:30.806Z,101322.00
2018-10-16T04:04:36.411Z,101324.04
2018-10-16T04:09:39.634Z,101327.88
2018-10-16T04:14:42.811Z,101319.92
2018-10-16T04:19:46.028Z,101328.25
2018-10-16T04:24:49.306Z,101341.75
2018-10-16T04:29:53.133Z,101346.58
2018-10-16T04:34:57.186Z,101337.05
2018-10-16T04:40:00.639Z,101343.23
2018-10-16T04:45:05.816Z,101346.00
2018-10-16T04:50:09.160Z,101361.55
2018-10-16T04:55:12.564Z,101355.98
2018-10-16T05:00:20.680Z,101358.30
2018-10-16T05:05:24.074Z,101356.02
2018-10-16T05:10:27.306Z,101363.72
2018-10-16T05:15:30.960Z,101366.86
2018-10-16T05:20:34.286Z,101368.66
2018-10-16T05:25:37.658Z,101376.02
2018-10-16T05:30:40.858Z,101388.23
2018-10-16T05:35:44.053Z,101395.34
2018-10-16T05:40:47.261Z,101401.38
2018-10-16T05:45:51.321Z,101397.98
2018-10-16T05:50:54.506Z,101403.88
2018-10-16T05:56:01.007Z,101414.40
2018-10-16T06:01:04.361Z,101402.80
2018-10-16T06:06:08.751Z,101415.60
2018-10-16T06:11:11.907Z,101420.76
2018-10-16T06:16:15.579Z,101418.41
2018-10-16T06:21:18.841Z,101422.17
2018-10-16T06:26:27.368Z,101429.51
2018-10-16T06:31:30.630Z,101433.79
2018-10-16T06:36:34.918Z,101432.25
2018-10-16T06:41:38.947Z,101435.23
2018-10-16T06:46:42.272Z,101429.48
2018-10-16T06:51:45.350Z,101443.02
2018-10-16T06:56:48.508Z,101437.11
2018-10-16T07:01:51.770Z,101439.98
2018-10-16T07:06:55.008Z,101444.62
2018-10-16T07:11:58.147Z,101446.77
2018-10-16T07:17:01.384Z,101435.31
2018-10-16T07:22:04.725Z,101448.94
2018-10-16T07:27:08.035Z,101436.79
2018-10-16T07:32:11.299Z,101432.98
2018-10-16T07:37:14.633Z,101432.80
2018-10-16T07:42:17.896Z,101435.16
2018-10-16T07:47:21.178Z,101435.80
2018-10-16T07:52:24.301Z,101433.92
2018-10-16T07:57:27.587Z,101437.69
2018-10-16T08:02:30.824Z,101441.34
2018-10-16T08:07:34.071Z,101431.00
2018-10-16T08:12:38.210Z,101430.52
2018-10-16T08:17:41.476Z,101435.55
2018-10-16T08:22:44.660Z,101429.63
2018-10-16T08:27:47.875Z,101440.77
2018-10-16T08:32:51.051Z,101452.25
2018-10-16T08:38:06.930Z,101452.69
2018-10-16T08:43:26.068Z,101465.83
2018-10-16T08:48:40.411Z,101457.95
2018-10-16T08:53:43.625Z,101460.81
2018-10-16T08:58:46.813Z,101463.37
2018-10-16T09:03:50.063Z,101476.70
2018-10-16T09:08:53.289Z,101468.95
2018-10-16T09:13:56.525Z,101478.96
2018-10-16T09:18:59.773Z,101469.41
2018-10-16T10:27:11.844Z,101449.34
2018-10-16T10:32:15.058Z,101444.80
2018-10-16T10:37:18.748Z,101449.84
2018-10-16T10:42:22.014Z,101437.57
2018-10-16T10:47:25.436Z,101438.20
2018-10-16T10:52:28.655Z,101437.94
2018-10-16T10:57:31.787Z,101434.27
2018-10-16T11:02:35.220Z,101437.33
2018-10-16T11:07:38.386Z,101433.94
2018-10-16T11:12:41.648Z,101439.36
2018-10-16T11:17:44.917Z,101435.66
2018-10-16T11:22:48.218Z,101431.73
2018-10-16T11:27:51.505Z,101440.39
2018-10-16T11:32:54.886Z,101443.25
2018-10-16T11:37:58.051Z,101446.22
2018-10-16T11:43:01.255Z,101437.84
2018-10-16T11:48:04.702Z,101439.83
2018-10-16T11:53:08.231Z,101431.33
2018-10-16T11:58:11.539Z,101440.78
2018-10-16T12:03:14.776Z,101442.08
2018-10-16T12:08:18.271Z,101441.72
2018-10-16T12:13:21.549Z,101433.56
2018-10-16T12:18:24.745Z,101430.47
2018-10-16T12:23:28.036Z,101435.93
2018-10-16T12:28:31.195Z,101424.61
2018-10-16T12:33:34.615Z,101432.80
2018-10-16T12:38:37.827Z,101430.56
2018-10-16T12:43:41.277Z,101430.64
2018-10-16T12:48:44.704Z,101427.87
2018-10-16T12:53:47.978Z,101422.89
2018-10-16T12:58:51.524Z,101423.83
2018-10-16T13:03:54.719Z,101418.93
2018-10-16T13:08:57.951Z,101421.30
2018-10-16T13:14:02.083Z,101428.95
2018-10-16T13:19:05.527Z,101433.74
2018-10-16T13:24:08.773Z,101427.61
2018-10-16T13:29:11.943Z,101422.78
2018-10-16T13:34:15.350Z,101429.63
2018-10-16T13:39:18.574Z,101426.73
2018-10-16T13:44:21.804Z,101434.53
2018-10-16T13:49:25.033Z,101433.13
2018-10-16T13:54:28.262Z,101430.66
2018-10-16T13:59:31.547Z,101429.70
2018-10-16T14:04:35.398Z,101419.45
2018-10-16T14:09:38.562Z,101425.31
2018-10-16T14:14:42.058Z,101422.41
2018-10-16T14:19:45.368Z,101429.05
2018-10-16T14:24:49.071Z,101430.47
2018-10-16T14:29:52.312Z,101432.05
2018-10-16T14:34:55.844Z,101435.08
2018-10-16T14:39:59.906Z,101441.89
2018-10-16T14:45:03.853Z,101439.81
2018-10-16T14:50:09.157Z,101438.77
2018-10-16T14:55:12.364Z,101440.34
2018-10-16T15:00:15.578Z,101442.31
2018-10-16T15:05:18.740Z,101451.38
2018-10-16T15:10:22.343Z,101458.08
2018-10-16T15:15:25.670Z,101459.72
2018-10-16T15:20:28.998Z,101461.73
2018-10-16T15:25:32.215Z,101464.89
2018-10-16T15:30:35.551Z,101461.76
2018-10-16T15:35:38.803Z,101460.11
2018-10-16T15:40:42.009Z,101461.55
2018-10-16T15:45:45.359Z,101461.76
2018-10-16T15:50:48.572Z,101461.38
2018-10-16T15:55:51.870Z,101470.58
2018-10-16T16:01:00.795Z,101474.74
2018-10-16T16:06:04.637Z,101479.20
2018-10-16T16:11:07.825Z,101476.95
2018-10-16T16:16:11.122Z,101486.33
2018-10-16T16:21:21.887Z,101500.16
2018-10-16T16:26:27.224Z,101505.33
2018-10-16T16:31:33.742Z,101504.44
2018-10-16T16:36:40.055Z,101513.11
2018-10-16T16:41:44.902Z,101510.96
2018-10-16T16:46:56.069Z,101506.44
2018-10-16T16:52:01.346Z,101517.57
2018-10-16T16:57:06.095Z,101510.66
2018-10-16T17:02:10.640Z,101515.70
2018-10-16T17:07:13.859Z,101509.98
2018-10-16T17:12:17.042Z,101515.36
2018-10-16T17:17:20.325Z,101531.02
2018-10-16T17:22:23.786Z,101535.56
2018-10-16T17:27:33.320Z,101539.41
2018-10-16T17:32:36.885Z,101532.02
2018-10-16T17:37:40.153Z,101527.14
2018-10-16T17:42:43.794Z,101537.91
2018-10-16T17:47:47.039Z,101540.94
2018-10-16T17:52:50.322Z,101536.55
2018-10-16T17:57:53.702Z,101547.62
2018-10-16T18:02:56.996Z,101540.56
2018-10-16T18:08:00.211Z,101542.93
2018-10-16T18:13:03.561Z,101551.52
2018-10-16T18:18:06.840Z,101554.03
2018-10-16T18:23:10.652Z,101545.63
2018-10-16T18:28:14.200Z,101552.82
2018-10-16T18:33:17.453Z,101550.62
2018-10-16T18:38:20.672Z,101547.94
2018-10-16T18:43:23.959Z,101556.48
2018-10-16T18:48:27.242Z,101557.11
2018-10-16T18:53:30.489Z,101556.76
2018-10-16T18:58:34.197Z,101557.19
2018-10-16T19:03:37.407Z,101556.50
2018-10-16T19:08:40.638Z,101555.94
2018-10-16T19:13:43.960Z,101555.41
2018-10-16T19:18:47.452Z,101551.35
2018-10-16T19:23:51.008Z,101559.86
2018-10-16T19:28:55.124Z,101558.08
2018-10-16T19:33:59.012Z,101551.23
2018-10-16T19:39:02.630Z,101555.20
2018-10-16T19:44:05.803Z,101545.18
2018-10-16T19:49:14.283Z,101551.22
2018-10-16T19:54:19.027Z,101558.41
2018-10-16T19:59:23.337Z,101560.05
2018-10-16T20:04:26.601Z,101556.05
2018-10-16T20:09:30.628Z,101546.23
2018-10-16T20:14:34.466Z,101548.70
2018-10-16T20:19:38.045Z,101541.97
2018-10-16T20:24:43.129Z,101534.83
2018-10-16T20:29:47.184Z,101529.52
2018-10-16T20:34:50.356Z,101537.24
2018-10-16T20:39:53.580Z,101534.54
2018-10-16T20:44:56.877Z,101535.98
2018-10-16T20:50:00.165Z,101540.13
2018-10-16T20:55:03.515Z,101539.94
2018-10-16T21:00:07.599Z,101543.41
2018-10-16T21:05:11.130Z,101549.11
2018-10-16T21:10:14.780Z,101553.67
2018-10-16T21:15:18.025Z,101550.92
2018-10-16T21:20:21.232Z,101554.70
2018-10-16T21:25:24.381Z,101554.30
2018-10-16T21:30:27.557Z,101563.62
2018-10-16T21:35:30.833Z,101566.53
2018-10-16T21:40:34.003Z,101557.52
2018-10-16T21:45:37.280Z,101560.40
2018-10-16T21:50:40.477Z,101556.98
2018-10-16T21:55:43.738Z,101559.53
2018-10-16T22:00:46.959Z,101554.08
2018-10-16T22:05:50.329Z,101557.51
2018-10-16T22:10:53.555Z,101552.70
2018-10-16T22:15:56.675Z,101552.98
2018-10-16T22:20:59.839Z,101546.88
2018-10-16T22:26:03.121Z,101554.11
2018-10-16T22:31:06.630Z,101548.81
2018-10-16T22:36:09.861Z,101546.30
2018-10-16T22:41:13.073Z,101546.38
2018-10-16T22:46:16.289Z,101547.77
2018-10-16T22:51:19.714Z,101543.59
2018-10-16T22:56:22.869Z,101551.65
2018-10-16T23:01:26.101Z,101552.55
2018-10-16T23:06:29.268Z,101560.83
2018-10-16T23:11:32.442Z,101551.30
2018-10-16T23:16:35.563Z,101557.98
2018-10-16T23:21:38.751Z,101553.91
2018-10-16T23:26:41.989Z,101554.17
2018-10-16T23:31:45.271Z,101551.02
2018-10-16T23:36:48.602Z,101559.06
2018-10-16T23:41:51.856Z,101543.37
2018-10-16T23:46:55.173Z,101538.69
2018-10-16T23:51:58.330Z,101536.30
2018-10-16T23:57:01.466Z,101542.84
